sensor_id;sensor_type;location;lat;lon;timestamp;pressure;altitude;pressure_sealevel;temperature
11424;BMP180;5768;51.476;7.210;2023-03-01T00:03:59;101623.00;;;4.30
11424;BMP180;5768;51.476;7.210;2023-03-01T00:09:03;101620.00;;;4.30
11424;BMP180;5768;51.476;7.210;2023-03-01T00:14:05;101622.00;;;4.30
11424;BMP180;5768;51.476;7.210;2023-03-01T00:19:13;101612.00;;;4.20
11424;BMP180;5768;51.476;7.210;2023-03-01T00:24:17;101618.00;;;4.20
11424;BMP180;5768;51.476;7.210;2023-03-01T00:29:19;101609.00;;;4.10
11424;BMP180;5768;51.476;7.210;2023-03-01T00:34:21;101603.00;;;4.10
11424;BMP180;5768;51.476;7.210;2023-03-01T00:39:24;101602.00;;;4.00
11424;BMP180;5768;51.476;7.210;2023-03-01T00:44:26;101589.00;;;4.00
11424;BMP180;5768;51.476;7.210;2023-03-01T00:49:29;101572.00;;;3.90
11424;BMP180;5768;51.476;7.210;2023-03-01T00:54:32;101584.00;;;3.90
11424;BMP180;5768;51.476;7.210;2023-03-01T00:59:34;101567.00;;;3.90
11424;BMP180;5768;51.476;7.210;2023-03-01T01:04:36;101578.00;;;3.80
11424;BMP180;5768;51.476;7.210;2023-03-01T01:09:41;101576.00;;;3.80
11424;BMP180;5768;51.476;7.210;2023-03-01T01:14:43;101572.00;;;3.80
11424;BMP180;5768;51.476;7.210;2023-03-01T01:19:45;101556.00;;;3.70
11424;BMP180;5768;51.476;7.210;2023-03-01T01:24:48;101554.00;;;3.70
11424;BMP180;5768;51.476;7.210;2023-03-01T01:29:53;101540.00;;;3.60
11424;BMP180;5768;51.476;7.210;2023-03-01T01:34:55;101540.00;;;3.60
11424;BMP180;5768;51.476;7.210;2023-03-01T01:39:58;101539.00;;;3.60
11424;BMP180;5768;51.476;7.210;2023-03-01T01:45:29;101540.00;;;3.60
11424;BMP180;5768;51.476;7.210;2023-03-01T01:50:35;101535.00;;;3.50
11424;BMP180;5768;51.476;7.210;2023-03-01T01:55:44;101544.00;;;3.50
11424;BMP180;5768;51.476;7.210;2023-03-01T02:00:47;101530.00;;;3.40
11424;BMP180;5768;51.476;7.210;2023-03-01T02:05:56;101524.00;;;3.40
11424;BMP180;5768;51.476;7.210;2023-03-01T02:11:01;101522.00;;;3.40
11424;BMP180;5768;51.476;7.210;2023-03-01T02:16:08;101513.00;;;3.30
11424;BMP180;5768;51.476;7.210;2023-03-01T02:21:37;101505.00;;;3.20
11424;BMP180;5768;51.476;7.210;2023-03-01T02:26:47;101517.00;;;3.20
11424;BMP180;5768;51.476;7.210;2023-03-01T02:31:54;101503.00;;;3.20
11424;BMP180;5768;51.476;7.210;2023-03-01T02:37:03;101504.00;;;3.30
11424;BMP180;5768;51.476;7.210;2023-03-01T02:42:06;101502.00;;;3.30
11424;BMP180;5768;51.476;7.210;2023-03-01T02:47:10;101511.00;;;3.20
11424;BMP180;5768;51.476;7.210;2023-03-01T02:52:33;101512.00;;;3.20
11424;BMP180;5768;51.476;7.210;2023-03-01T02:57:39;101510.00;;;3.20
11424;BMP180;5768;51.476;7.210;2023-03-01T03:02:44;101511.00;;;3.20
11424;BMP180;5768;51.476;7.210;2023-03-01T03:07:48;101505.00;;;3.20
11424;BMP180;5768;51.476;7.210;2023-03-01T03:12:52;101503.00;;;3.10
11424;BMP180;5768;51.476;7.210;2023-03-01T03:17:57;101494.00;;;3.10
11424;BMP180;5768;51.476;7.210;2023-03-01T03:22:59;101501.00;;;3.10
11424;BMP180;5768;51.476;7.210;2023-03-01T03:28:03;101494.00;;;3.00
11424;BMP180;5768;51.476;7.210;2023-03-01T03:33:12;101492.00;;;3.00
11424;BMP180;5768;51.476;7.210;2023-03-01T03:38:17;101485.00;;;3.00
11424;BMP180;5768;51.476;7.210;2023-03-01T03:43:23;101486.00;;;3.00
11424;BMP180;5768;51.476;7.210;2023-03-01T03:48:27;101472.00;;;3.00
11424;BMP180;5768;51.476;7.210;2023-03-01T03:53:29;101466.00;;;3.00
11424;BMP180;5768;51.476;7.210;2023-03-01T03:58:31;101463.00;;;2.90
11424;BMP180;5768;51.476;7.210;2023-03-01T04:03:35;101458.00;;;2.90
11424;BMP180;5768;51.476;7.210;2023-03-01T04:08:36;101454.00;;;2.90
11424;BMP180;5768;51.476;7.210;2023-03-01T04:13:38;101454.00;;;2.80
11424;BMP180;5768;51.476;7.210;2023-03-01T04:18:42;101451.00;;;2.70
11424;BMP180;5768;51.476;7.210;2023-03-01T04:23:44;101460.00;;;2.70
11424;BMP180;5768;51.476;7.210;2023-03-01T04:28:47;101467.00;;;2.70
11424;BMP180;5768;51.476;7.210;2023-03-01T04:33:54;101465.00;;;2.70
11424;BMP180;5768;51.476;7.210;2023-03-01T04:38:57;101465.00;;;2.70
11424;BMP180;5768;51.476;7.210;2023-03-01T04:43:59;101463.00;;;2.70
11424;BMP180;5768;51.476;7.210;2023-03-01T04:49:06;101457.00;;;2.70
11424;BMP180;5768;51.476;7.210;2023-03-01T04:54:08;101464.00;;;2.60
11424;BMP180;5768;51.476;7.210;2023-03-01T04:59:11;101456.00;;;2.60
11424;BMP180;5768;51.476;7.210;2023-03-01T05:04:14;101454.00;;;2.60
11424;BMP180;5768;51.476;7.210;2023-03-01T05:09:16;101449.00;;;2.60
11424;BMP180;5768;51.476;7.210;2023-03-01T05:14:18;101435.00;;;2.60
11424;BMP180;5768;51.476;7.210;2023-03-01T05:19:22;101440.00;;;2.60
11424;BMP180;5768;51.476;7.210;2023-03-01T05:24:24;101443.00;;;2.60
11424;BMP180;5768;51.476;7.210;2023-03-01T05:29:30;101443.00;;;2.50
11424;BMP180;5768;51.476;7.210;2023-03-01T05:34:37;101429.00;;;2.50
11424;BMP180;5768;51.476;7.210;2023-03-01T05:39:39;101431.00;;;2.50
11424;BMP180;5768;51.476;7.210;2023-03-01T05:44:45;101434.00;;;2.60
11424;BMP180;5768;51.476;7.210;2023-03-01T05:49:48;101428.00;;;2.50
11424;BMP180;5768;51.476;7.210;2023-03-01T05:54:50;101428.00;;;2.50
11424;BMP180;5768;51.476;7.210;2023-03-01T05:59:53;101440.00;;;2.50
11424;BMP180;5768;51.476;7.210;2023-03-01T06:04:56;101435.00;;;2.40
11424;BMP180;5768;51.476;7.210;2023-03-01T06:09:58;101428.00;;;2.40
11424;BMP180;5768;51.476;7.210;2023-03-01T06:15:01;101422.00;;;2.40
11424;BMP180;5768;51.476;7.210;2023-03-01T06:20:09;101427.00;;;2.40
11424;BMP180;5768;51.476;7.210;2023-03-01T06:25:14;101422.00;;;2.50
11424;BMP180;5768;51.476;7.210;2023-03-01T06:30:18;101426.00;;;2.50
11424;BMP180;5768;51.476;7.210;2023-03-01T06:35:22;101425.00;;;2.50
11424;BMP180;5768;51.476;7.210;2023-03-01T06:40:25;101426.00;;;2.50
11424;BMP180;5768;51.476;7.210;2023-03-01T06:45:28;101422.00;;;2.60
11424;BMP180;5768;51.476;7.210;2023-03-01T06:50:33;101432.00;;;2.60
11424;BMP180;5768;51.476;7.210;2023-03-01T06:55:35;101425.00;;;2.70
11424;BMP180;5768;51.476;7.210;2023-03-01T07:00:37;101426.00;;;2.70
11424;BMP180;5768;51.476;7.210;2023-03-01T07:05:42;101419.00;;;2.80
11424;BMP180;5768;51.476;7.210;2023-03-01T07:10:45;101412.00;;;2.90
11424;BMP180;5768;51.476;7.210;2023-03-01T07:15:47;101415.00;;;2.90
11424;BMP180;5768;51.476;7.210;2023-03-01T07:20:50;101424.00;;;3.00
11424;BMP180;5768;51.476;7.210;2023-03-01T07:25:53;101419.00;;;3.10
11424;BMP180;5768;51.476;7.210;2023-03-01T07:31:01;101414.00;;;3.20
11424;BMP180;5768;51.476;7.210;2023-03-01T07:36:06;101417.00;;;3.30
11424;BMP180;5768;51.476;7.210;2023-03-01T07:41:08;101413.00;;;3.40
11424;BMP180;5768;51.476;7.210;2023-03-01T07:46:10;101413.00;;;3.60
11424;BMP180;5768;51.476;7.210;2023-03-01T07:51:14;101411.00;;;3.80
11424;BMP180;5768;51.476;7.210;2023-03-01T07:56:16;101413.00;;;3.90
11424;BMP180;5768;51.476;7.210;2023-03-01T08:01:21;101420.00;;;4.00
11424;BMP180;5768;51.476;7.210;2023-03-01T08:06:24;101431.00;;;4.20
11424;BMP180;5768;51.476;7.210;2023-03-01T08:11:27;101420.00;;;4.30
11424;BMP180;5768;51.476;7.210;2023-03-01T08:16:29;101427.00;;;4.40
11424;BMP180;5768;51.476;7.210;2023-03-01T08:21:33;101423.00;;;4.60
11424;BMP180;5768;51.476;7.210;2023-03-01T08:26:36;101415.00;;;4.70
11424;BMP180;5768;51.476;7.210;2023-03-01T08:31:39;101422.00;;;4.90
11424;BMP180;5768;51.476;7.210;2023-03-01T08:36:45;101415.00;;;5.00
11424;BMP180;5768;51.476;7.210;2023-03-01T08:41:47;101411.00;;;5.20
11424;BMP180;5768;51.476;7.210;2023-03-01T08:46:50;101408.00;;;5.40
11424;BMP180;5768;51.476;7.210;2023-03-01T08:51:55;101399.00;;;5.60
11424;BMP180;5768;51.476;7.210;2023-03-01T08:56:56;101395.00;;;5.70
11424;BMP180;5768;51.476;7.210;2023-03-01T09:02:00;101402.00;;;5.80
11424;BMP180;5768;51.476;7.210;2023-03-01T09:07:03;101404.00;;;5.90
11424;BMP180;5768;51.476;7.210;2023-03-01T09:12:05;101403.00;;;6.00
11424;BMP180;5768;51.476;7.210;2023-03-01T09:17:07;101390.00;;;6.20
11424;BMP180;5768;51.476;7.210;2023-03-01T09:22:11;101390.00;;;6.30
11424;BMP180;5768;51.476;7.210;2023-03-01T09:27:13;101389.00;;;6.50
11424;BMP180;5768;51.476;7.210;2023-03-01T09:32:15;101380.00;;;6.60
11424;BMP180;5768;51.476;7.210;2023-03-01T09:37:18;101374.00;;;6.80
11424;BMP180;5768;51.476;7.210;2023-03-01T09:42:21;101377.00;;;6.90
11424;BMP180;5768;51.476;7.210;2023-03-01T09:47:27;101372.00;;;7.00
11424;BMP180;5768;51.476;7.210;2023-03-01T09:52:38;101385.00;;;7.10
11424;BMP180;5768;51.476;7.210;2023-03-01T09:57:49;101383.00;;;7.20
11424;BMP180;5768;51.476;7.210;2023-03-01T10:03:00;101370.00;;;7.30
11424;BMP180;5768;51.476;7.210;2023-03-01T10:08:30;101376.00;;;7.40
11424;BMP180;5768;51.476;7.210;2023-03-01T10:13:47;101360.00;;;7.40
11424;BMP180;5768;51.476;7.210;2023-03-01T10:18:59;101357.00;;;7.50
11424;BMP180;5768;51.476;7.210;2023-03-01T10:24:13;101351.00;;;7.60
11424;BMP180;5768;51.476;7.210;2023-03-01T10:29:16;101356.00;;;7.60
11424;BMP180;5768;51.476;7.210;2023-03-01T10:34:20;101357.00;;;7.70
11424;BMP180;5768;51.476;7.210;2023-03-01T10:39:25;101351.00;;;7.70
11424;BMP180;5768;51.476;7.210;2023-03-01T10:44:42;101352.00;;;7.80
11424;BMP180;5768;51.476;7.210;2023-03-01T10:50:00;101345.00;;;7.90
11424;BMP180;5768;51.476;7.210;2023-03-01T10:55:27;101318.00;;;8.00
11424;BMP180;5768;51.476;7.210;2023-03-01T11:00:30;101312.00;;;8.10
11424;BMP180;5768;51.476;7.210;2023-03-01T11:05:32;101312.00;;;8.20
11424;BMP180;5768;51.476;7.210;2023-03-01T11:10:36;101303.00;;;8.30
11424;BMP180;5768;51.476;7.210;2023-03-01T11:15:38;101300.00;;;8.40
11424;BMP180;5768;51.476;7.210;2023-03-01T11:20:41;101297.00;;;8.60
11424;BMP180;5768;51.476;7.210;2023-03-01T11:25:54;101286.00;;;8.70
11424;BMP180;5768;51.476;7.210;2023-03-01T11:31:02;101280.00;;;8.80
11424;BMP180;5768;51.476;7.210;2023-03-01T11:36:15;101292.00;;;9.00
11424;BMP180;5768;51.476;7.210;2023-03-01T11:41:25;101280.00;;;9.20
11424;BMP180;5768;51.476;7.210;2023-03-01T11:46:58;101280.00;;;9.50
11424;BMP180;5768;51.476;7.210;2023-03-01T11:52:17;101281.00;;;9.70
11424;BMP180;5768;51.476;7.210;2023-03-01T11:57:43;101273.00;;;9.90
11424;BMP180;5768;51.476;7.210;2023-03-01T12:03:22;101275.00;;;10.10
11424;BMP180;5768;51.476;7.210;2023-03-01T12:08:35;101278.00;;;10.40
11424;BMP180;5768;51.476;7.210;2023-03-01T12:14:08;101276.00;;;10.70
11424;BMP180;5768;51.476;7.210;2023-03-01T12:19:42;101266.00;;;11.10
11424;BMP180;5768;51.476;7.210;2023-03-01T12:25:25;101265.00;;;11.50
11424;BMP180;5768;51.476;7.210;2023-03-01T12:30:46;101256.00;;;11.90
11424;BMP180;5768;51.476;7.210;2023-03-01T12:36:29;101244.00;;;12.20
11424;BMP180;5768;51.476;7.210;2023-03-01T12:41:53;101237.00;;;12.50
11424;BMP180;5768;51.476;7.210;2023-03-01T12:47:19;101237.00;;;12.90
11424;BMP180;5768;51.476;7.210;2023-03-01T12:52:29;101241.00;;;13.30
11424;BMP180;5768;51.476;7.210;2023-03-01T12:57:42;101238.00;;;13.70
11424;BMP180;5768;51.476;7.210;2023-03-01T13:02:55;101238.00;;;14.30
11424;BMP180;5768;51.476;7.210;2023-03-01T13:08:08;101236.00;;;14.90
11424;BMP180;5768;51.476;7.210;2023-03-01T13:13:19;101236.00;;;15.60
11424;BMP180;5768;51.476;7.210;2023-03-01T13:18:31;101231.00;;;16.10
11424;BMP180;5768;51.476;7.210;2023-03-01T13:23:37;101222.00;;;16.80
11424;BMP180;5768;51.476;7.210;2023-03-01T13:28:57;101221.00;;;17.60
11424;BMP180;5768;51.476;7.210;2023-03-01T13:34:02;101226.00;;;18.20
11424;BMP180;5768;51.476;7.210;2023-03-01T13:39:30;101227.00;;;18.60
11424;BMP180;5768;51.476;7.210;2023-03-01T13:44:36;101216.00;;;19.40
11424;BMP180;5768;51.476;7.210;2023-03-01T13:49:47;101217.00;;;19.70
11424;BMP180;5768;51.476;7.210;2023-03-01T13:54:51;101206.00;;;20.50
11424;BMP180;5768;51.476;7.210;2023-03-01T13:59:54;101201.00;;;21.10
11424;BMP180;5768;51.476;7.210;2023-03-01T14:04:59;101203.00;;;22.00
11424;BMP180;5768;51.476;7.210;2023-03-01T14:10:05;101187.00;;;22.80
11424;BMP180;5768;51.476;7.210;2023-03-01T14:15:15;101183.00;;;23.30
11424;BMP180;5768;51.476;7.210;2023-03-01T14:20:24;101184.00;;;23.90
11424;BMP180;5768;51.476;7.210;2023-03-01T14:25:30;101181.00;;;24.30
11424;BMP180;5768;51.476;7.210;2023-03-01T14:30:37;101176.00;;;24.80
11424;BMP180;5768;51.476;7.210;2023-03-01T14:35:41;101163.00;;;25.50
11424;BMP180;5768;51.476;7.210;2023-03-01T14:40:43;101157.00;;;25.80
11424;BMP180;5768;51.476;7.210;2023-03-01T14:45:49;101167.00;;;26.20
11424;BMP180;5768;51.476;7.210;2023-03-01T14:50:54;101154.00;;;26.60
11424;BMP180;5768;51.476;7.210;2023-03-01T14:56:03;101144.00;;;26.60
11424;BMP180;5768;51.476;7.210;2023-03-01T15:01:10;101153.00;;;26.70
11424;BMP180;5768;51.476;7.210;2023-03-01T15:06:19;101134.00;;;27.40
11424;BMP180;5768;51.476;7.210;2023-03-01T15:11:27;101138.00;;;27.70
11424;BMP180;5768;51.476;7.210;2023-03-01T15:16:32;101129.00;;;27.90
11424;BMP180;5768;51.476;7.210;2023-03-01T15:21:38;101136.00;;;28.30
11424;BMP180;5768;51.476;7.210;2023-03-01T15:26:42;101128.00;;;28.50
11424;BMP180;5768;51.476;7.210;2023-03-01T15:31:57;101130.00;;;28.60
11424;BMP180;5768;51.476;7.210;2023-03-01T15:37:02;101119.00;;;28.50
11424;BMP180;5768;51.476;7.210;2023-03-01T15:42:09;101115.00;;;28.50
11424;BMP180;5768;51.476;7.210;2023-03-01T15:47:28;101123.00;;;28.70
11424;BMP180;5768;51.476;7.210;2023-03-01T15:52:40;101105.00;;;28.80
11424;BMP180;5768;51.476;7.210;2023-03-01T15:57:43;101110.00;;;28.50
11424;BMP180;5768;51.476;7.210;2023-03-01T16:02:46;101115.00;;;28.10
11424;BMP180;5768;51.476;7.210;2023-03-01T16:07:50;101107.00;;;27.90
11424;BMP180;5768;51.476;7.210;2023-03-01T16:12:52;101108.00;;;27.30
11424;BMP180;5768;51.476;7.210;2023-03-01T16:17:54;101103.00;;;25.20
11424;BMP180;5768;51.476;7.210;2023-03-01T16:23:05;101109.00;;;22.80
11424;BMP180;5768;51.476;7.210;2023-03-01T16:28:08;101087.00;;;21.30
11424;BMP180;5768;51.476;7.210;2023-03-01T16:33:10;101089.00;;;20.10
11424;BMP180;5768;51.476;7.210;2023-03-01T16:38:14;101080.00;;;18.70
11424;BMP180;5768;51.476;7.210;2023-03-01T16:43:16;101078.00;;;17.10
11424;BMP180;5768;51.476;7.210;2023-03-01T16:48:18;101078.00;;;16.10
11424;BMP180;5768;51.476;7.210;2023-03-01T16:53:21;101085.00;;;15.50
11424;BMP180;5768;51.476;7.210;2023-03-01T16:58:24;101077.00;;;14.80
11424;BMP180;5768;51.476;7.210;2023-03-01T17:03:30;101083.00;;;14.30
11424;BMP180;5768;51.476;7.210;2023-03-01T17:08:38;101074.00;;;13.80
11424;BMP180;5768;51.476;7.210;2023-03-01T17:13:41;101073.00;;;13.40
11424;BMP180;5768;51.476;7.210;2023-03-01T17:18:44;101072.00;;;12.90
11424;BMP180;5768;51.476;7.210;2023-03-01T17:23:48;101071.00;;;12.50
11424;BMP180;5768;51.476;7.210;2023-03-01T17:28:51;101067.00;;;12.20
11424;BMP180;5768;51.476;7.210;2023-03-01T17:33:53;101072.00;;;11.90
11424;BMP180;5768;51.476;7.210;2023-03-01T17:38:57;101074.00;;;11.50
11424;BMP180;5768;51.476;7.210;2023-03-01T17:43:59;101068.00;;;11.30
11424;BMP180;5768;51.476;7.210;2023-03-01T17:49:01;101075.00;;;11.10
11424;BMP180;5768;51.476;7.210;2023-03-01T17:54:05;101089.00;;;10.90
11424;BMP180;5768;51.476;7.210;2023-03-01T17:59:07;101083.00;;;10.70
11424;BMP180;5768;51.476;7.210;2023-03-01T18:04:09;101077.00;;;10.50
11424;BMP180;5768;51.476;7.210;2023-03-01T18:09:13;101086.00;;;10.40
11424;BMP180;5768;51.476;7.210;2023-03-01T18:14:15;101092.00;;;10.20
11424;BMP180;5768;51.476;7.210;2023-03-01T18:19:17;101088.00;;;10.00
11424;BMP180;5768;51.476;7.210;2023-03-01T18:24:23;101084.00;;;9.80
11424;BMP180;5768;51.476;7.210;2023-03-01T18:29:25;101080.00;;;9.60
11424;BMP180;5768;51.476;7.210;2023-03-01T18:34:28;101076.00;;;9.50
11424;BMP180;5768;51.476;7.210;2023-03-01T18:39:31;101069.00;;;9.40
11424;BMP180;5768;51.476;7.210;2023-03-01T18:44:34;101062.00;;;9.30
11424;BMP180;5768;51.476;7.210;2023-03-01T18:49:36;101069.00;;;9.20
11424;BMP180;5768;51.476;7.210;2023-03-01T18:54:39;101061.00;;;9.00
11424;BMP180;5768;51.476;7.210;2023-03-01T18:59:43;101049.00;;;8.90
11424;BMP180;5768;51.476;7.210;2023-03-01T19:04:48;101048.00;;;8.80
11424;BMP180;5768;51.476;7.210;2023-03-01T19:09:53;101052.00;;;8.70
11424;BMP180;5768;51.476;7.210;2023-03-01T19:14:55;101046.00;;;8.60
11424;BMP180;5768;51.476;7.210;2023-03-01T19:19:57;101045.00;;;8.50
11424;BMP180;5768;51.476;7.210;2023-03-01T19:25:01;101025.00;;;8.50
11424;BMP180;5768;51.476;7.210;2023-03-01T19:30:05;101040.00;;;8.40
11424;BMP180;5768;51.476;7.210;2023-03-01T19:35:07;101049.00;;;8.30
11424;BMP180;5768;51.476;7.210;2023-03-01T19:40:11;101044.00;;;8.20
11424;BMP180;5768;51.476;7.210;2023-03-01T19:45:18;101038.00;;;8.10
11424;BMP180;5768;51.476;7.210;2023-03-01T19:50:20;101046.00;;;8.10
11424;BMP180;5768;51.476;7.210;2023-03-01T19:55:23;101043.00;;;8.00
11424;BMP180;5768;51.476;7.210;2023-03-01T20:00:25;101044.00;;;7.90
11424;BMP180;5768;51.476;7.210;2023-03-01T20:05:27;101031.00;;;7.90
11424;BMP180;5768;51.476;7.210;2023-03-01T20:10:32;101032.00;;;7.80
11424;BMP180;5768;51.476;7.210;2023-03-01T20:15:34;101035.00;;;7.70
11424;BMP180;5768;51.476;7.210;2023-03-01T20:20:37;101038.00;;;7.60
11424;BMP180;5768;51.476;7.210;2023-03-01T20:25:40;101043.00;;;7.50
11424;BMP180;5768;51.476;7.210;2023-03-01T20:30:42;101037.00;;;7.50
11424;BMP180;5768;51.476;7.210;2023-03-01T20:35:44;101031.00;;;7.40
11424;BMP180;5768;51.476;7.210;2023-03-01T20:40:48;101026.00;;;7.30
11424;BMP180;5768;51.476;7.210;2023-03-01T20:45:50;101036.00;;;7.20
11424;BMP180;5768;51.476;7.210;2023-03-01T20:50:52;101031.00;;;7.20
11424;BMP180;5768;51.476;7.210;2023-03-01T20:56:01;101038.00;;;7.10
11424;BMP180;5768;51.476;7.210;2023-03-01T21:01:04;101031.00;;;7.10
11424;BMP180;5768;51.476;7.210;2023-03-01T21:06:07;101015.00;;;7.00
11424;BMP180;5768;51.476;7.210;2023-03-01T21:11:10;101010.00;;;7.00
11424;BMP180;5768;51.476;7.210;2023-03-01T21:16:13;101003.00;;;6.90
11424;BMP180;5768;51.476;7.210;2023-03-01T21:21:18;100998.00;;;6.90
11424;BMP180;5768;51.476;7.210;2023-03-01T21:26:24;100999.00;;;6.80
11424;BMP180;5768;51.476;7.210;2023-03-01T21:31:29;101000.00;;;6.80
11424;BMP180;5768;51.476;7.210;2023-03-01T21:36:34;100984.00;;;6.80
11424;BMP180;5768;51.476;7.210;2023-03-01T21:41:37;100991.00;;;6.70
11424;BMP180;5768;51.476;7.210;2023-03-01T21:46:39;100982.00;;;6.70
11424;BMP180;5768;51.476;7.210;2023-03-01T21:51:42;100991.00;;;6.70
11424;BMP180;5768;51.476;7.210;2023-03-01T21:56:47;100991.00;;;6.70
11424;BMP180;5768;51.476;7.210;2023-03-01T22:01:51;100985.00;;;6.60
11424;BMP180;5768;51.476;7.210;2023-03-01T22:06:53;100993.00;;;6.60
11424;BMP180;5768;51.476;7.210;2023-03-01T22:11:56;101002.00;;;6.50
11424;BMP180;5768;51.476;7.210;2023-03-01T22:17:01;100988.00;;;6.50
11424;BMP180;5768;51.476;7.210;2023-03-01T22:22:04;100998.00;;;6.50
11424;BMP180;5768;51.476;7.210;2023-03-01T22:27:07;101007.00;;;6.40
11424;BMP180;5768;51.476;7.210;2023-03-01T22:32:09;100999.00;;;6.40
11424;BMP180;5768;51.476;7.210;2023-03-01T22:37:11;100998.00;;;6.40
11424;BMP180;5768;51.476;7.210;2023-03-01T22:42:14;100999.00;;;6.30
11424;BMP180;5768;51.476;7.210;2023-03-01T22:47:17;100994.00;;;6.30
11424;BMP180;5768;51.476;7.210;2023-03-01T22:52:19;100994.00;;;6.30
11424;BMP180;5768;51.476;7.210;2023-03-01T22:57:22;100992.00;;;6.20
11424;BMP180;5768;51.476;7.210;2023-03-01T23:02:24;100971.00;;;6.20
11424;BMP180;5768;51.476;7.210;2023-03-01T23:07:26;100977.00;;;6.20
11424;BMP180;5768;51.476;7.210;2023-03-01T23:12:30;100963.00;;;6.10
11424;BMP180;5768;51.476;7.210;2023-03-01T23:17:33;100964.00;;;6.10
11424;BMP180;5768;51.476;7.210;2023-03-01T23:22:35;100964.00;;;6.10
11424;BMP180;5768;51.476;7.210;2023-03-01T23:27:39;100978.00;;;6.00
11424;BMP180;5768;51.476;7.210;2023-03-01T23:32:42;100965.00;;;6.00
11424;BMP180;5768;51.476;7.210;2023-03-01T23:37:44;100974.00;;;5.90
11424;BMP180;5768;51.476;7.210;2023-03-01T23:42:50;100982.00;;;5.90
11424;BMP180;5768;51.476;7.210;2023-03-01T23:47:52;100992.00;;;5.90
11424;BMP180;5768;51.476;7.210;2023-03-01T23:52:55;100997.00;;;5.90
11424;BMP180;5768;51.476;7.210;2023-03-01T23:57:58;101002.00;;;5.80
